Time;durP1;ratioP1;P1;durP2;ratioP2;P2;SDS_P1;SDS_P2;PMS_P1;PMS_P2;Temp;Humidity;BMP_temperature;BMP_pressure;BME280_temperature;BME280_humidity;BME280_pressure;Samples;Min_cycle;Max_cycle;Signal;HPM_P1;HPM_P2
2022/02/02 00:01:14;;;;;;;0.80;0.47;;;25.50;55.70;;;;;;5041387;28;20191;-53
2022/02/02 00:03:51;;;;;;;2.17;0.55;;;25.60;55.60;;;;;;5039946;28;20208;-53
2022/02/02 00:06:27;;;;;;;1.65;0.60;;;25.50;55.50;;;;;;5043841;28;20935;-46
2022/02/02 00:09:01;;;;;;;1.92;0.60;;;25.50;55.40;;;;;;5044660;28;20566;-49
2022/02/02 00:14:48;;;;;;;0.90;0.57;;;25.60;55.30;;;;;;5042222;28;20653;-44
2022/02/02 00:17:31;;;;;;;1.98;1.10;;;25.60;55.20;;;;;;5045796;28;20227;-43
2022/02/02 00:20:14;;;;;;;1.42;0.75;;;25.60;55.20;;;;;;5041963;28;20851;-46
2022/02/02 00:22:47;;;;;;;1.38;0.85;;;25.60;55.20;;;;;;5042252;28;20686;-42
2022/02/02 00:25:21;;;;;;;2.22;0.93;;;25.60;55.10;;;;;;5041337;28;20226;-57
2022/02/02 00:27:56;;;;;;;1.30;0.93;;;25.70;55.10;;;;;;5043391;28;20212;-55
2022/02/02 00:30:31;;;;;;;2.08;0.90;;;25.70;55.00;;;;;;5043281;28;20278;-55
2022/02/02 00:33:14;;;;;;;1.83;1.10;;;25.70;55.00;;;;;;5044541;28;20632;-40
2022/02/02 00:36:00;;;;;;;1.48;1.17;;;25.70;54.90;;;;;;5044304;28;20192;-49
2022/02/02 00:38:31;;;;;;;1.50;1.10;;;25.60;54.80;;;;;;5044039;28;20666;-41
2022/02/02 00:41:02;;;;;;;1.80;0.98;;;25.70;54.90;;;;;;5043209;28;20203;-40
2022/02/02 00:43:32;;;;;;;2.80;1.52;;;25.70;54.80;;;;;;5042028;28;20203;-54
2022/02/02 00:46:03;;;;;;;1.40;1.30;;;25.70;54.70;;;;;;5040053;28;20223;-40
2022/02/02 00:48:34;;;;;;;1.20;1.00;;;25.70;54.70;;;;;;5043170;28;20219;-40
2022/02/02 00:51:07;;;;;;;1.90;1.30;;;25.70;54.70;;;;;;5041839;28;20664;-57
2022/02/02 00:53:37;;;;;;;2.05;1.33;;;25.70;54.60;;;;;;5043966;28;20196;-49
2022/02/02 00:56:08;;;;;;;1.23;1.02;;;25.70;54.60;;;;;;5045408;28;20199;-52
2022/02/02 00:58:39;;;;;;;1.90;1.10;;;25.70;54.50;;;;;;5041807;28;20261;-45
2022/02/02 01:01:09;;;;;;;2.75;1.15;;;25.80;54.60;;;;;;5040432;28;20199;-56
2022/02/02 01:03:40;;;;;;;2.70;1.20;;;25.80;54.50;;;;;;5041652;28;20253;-49
2022/02/02 01:06:16;;;;;;;1.00;0.80;;;25.80;54.50;;;;;;5040875;28;20771;-56
2022/02/02 01:09:07;;;;;;;2.03;1.10;;;25.80;54.40;;;;;;5041997;28;21050;-41
2022/02/02 01:12:07;;;;;;;1.80;1.10;;;25.80;54.40;;;;;;5038347;28;20262;-47
2022/02/02 01:20:35;;;;;;;1.25;0.80;;;25.80;54.20;;;;;;4990302;28;20192;-42
2022/02/02 01:28:42;;;;;;;1.20;0.90;;;25.80;54.70;;;;;;5014406;28;20568;-51
2022/02/02 01:31:15;;;;;;;1.98;0.90;;;25.80;54.10;;;;;;5028912;28;20200;-40
2022/02/02 01:33:47;;;;;;;1.45;0.88;;;25.80;54.10;;;;;;5020774;28;20284;-40
2022/02/02 01:36:19;;;;;;;0.73;0.73;;;25.80;54.10;;;;;;5022722;28;20200;-43
2022/02/02 01:38:53;;;;;;;2.30;0.73;;;25.80;54.10;;;;;;5027684;28;20223;-50
2022/02/02 01:41:32;;;;;;;1.58;0.70;;;25.90;54.10;;;;;;5016560;28;20896;-49
2022/02/02 01:44:11;;;;;;;1.15;0.70;;;25.80;54.00;;;;;;5014741;28;20290;-52
2022/02/02 01:46:42;;;;;;;0.65;0.60;;;25.90;54.10;;;;;;5014759;28;20220;-56
2022/02/02 01:55:03;;;;;;;0.73;0.73;;;25.90;53.90;;;;;;4975505;28;20356;-44
2022/02/02 01:57:58;;;;;;;1.88;0.80;;;25.90;53.90;;;;;;5016504;28;20223;-52
2022/02/02 02:00:29;;;;;;;1.25;0.70;;;25.90;53.90;;;;;;5020245;28;20211;-54
2022/02/02 02:02:59;;;;;;;0.75;0.75;;;25.90;53.80;;;;;;5020051;28;20253;-42
2022/02/02 02:05:30;;;;;;;0.63;0.60;;;26.00;53.90;;;;;;5027718;28;20223;-51
2022/02/02 02:08:00;;;;;;;0.85;0.50;;;26.00;53.90;;;;;;5016720;28;20990;-53
2022/02/02 02:10:33;;;;;;;0.77;0.50;;;26.00;53.90;;;;;;5013657;28;20222;-42
2022/02/02 02:13:08;;;;;;;0.68;0.50;;;26.00;53.90;;;;;;5026178;28;20266;-53
2022/02/02 02:15:41;;;;;;;1.45;0.50;;;26.00;53.80;;;;;;5024474;28;20859;-44
2022/02/02 02:18:12;;;;;;;0.70;0.50;;;26.00;53.80;;;;;;5035244;28;20720;-41
2022/02/02 02:20:42;;;;;;;0.55;0.55;;;26.00;53.80;;;;;;5044542;28;20196;-47
2022/02/02 02:23:15;;;;;;;0.93;0.60;;;26.00;53.80;;;;;;5045402;28;20255;-44
2022/02/02 02:25:45;;;;;;;1.75;0.68;;;26.00;53.80;;;;;;5044308;28;20228;-45
2022/02/02 02:28:27;;;;;;;1.38;0.57;;;26.00;53.70;;;;;;5048226;28;20691;-49
2022/02/02 02:31:02;;;;;;;1.00;0.60;;;26.00;53.70;;;;;;5048570;28;20738;-45
2022/02/02 02:33:54;;;;;;;1.23;0.55;;;26.00;53.70;;;;;;5044292;28;20284;-57
2022/02/02 02:36:52;;;;;;;1.20;0.55;;;26.00;53.60;;;;;;5042557;28;21084;-55
2022/02/02 02:39:38;;;;;;;0.90;0.50;;;26.10;53.70;;;;;;5043896;28;20199;-46
2022/02/02 02:56:05;;;;;;;0.38;0.25;;;26.20;53.60;;;;;;5044066;28;21013;-56
2022/02/02 02:58:47;;;;;;;1.23;0.52;;;26.20;53.60;;;;;;5042572;28;20270;-50
2022/02/02 03:01:32;;;;;;;0.95;0.50;;;26.20;53.60;;;;;;5046225;28;20249;-49
2022/02/02 03:32:01;;;;;;;0.70;0.40;;;26.30;53.40;;;;;;5039922;28;20258;-48
2022/02/02 03:34:46;;;;;;;0.93;0.30;;;26.30;53.40;;;;;;5042848;28;20302;-49
2022/02/02 03:51:31;;;;;;;1.92;0.70;;;26.40;53.20;;;;;;5044861;28;20708;-43
2022/02/02 03:56:58;;;;;;;1.88;0.20;;;26.40;53.10;;;;;;5043584;28;20240;-53
2022/02/02 03:59:40;;;;;;;0.68;0.32;;;26.50;53.10;;;;;;5042562;28;20292;-51
2022/02/02 04:05:19;;;;;;;1.75;0.50;;;26.50;53.10;;;;;;5041746;28;20207;-55
2022/02/02 04:07:51;;;;;;;0.47;0.30;;;26.50;53.10;;;;;;5039133;28;20226;-52
2022/02/02 04:10:21;;;;;;;1.02;0.40;;;26.50;53.10;;;;;;5041011;28;20621;-49
2022/02/02 04:12:57;;;;;;;0.50;0.30;;;26.50;53.10;;;;;;5043476;28;20237;-50
2022/02/02 04:38:05;;;;;;;1.00;0.38;;;26.60;53.00;;;;;;5043797;28;20349;-52
2022/02/02 04:51:56;;;;;;;0.20;0.20;;;26.70;52.90;;;;;;5048192;28;20207;-55
2022/02/02 04:54:33;;;;;;;0.80;0.30;;;26.70;52.90;;;;;;5048839;28;20213;-45
2022/02/02 05:00:07;;;;;;;1.73;0.32;;;26.70;52.80;;;;;;5050556;28;20207;-49
2022/02/02 05:05:42;;;;;;;0.43;0.20;;;26.70;52.80;;;;;;5051302;28;20307;-44
2022/02/02 05:08:21;;;;;;;0.63;0.30;;;26.70;52.80;;;;;;5051734;28;20765;-49
2022/02/02 05:11:09;;;;;;;0.43;0.25;;;26.70;52.80;;;;;;5048455;28;20195;-52
2022/02/02 05:14:41;;;;;;;0.20;0.20;;;26.80;52.90;;;;;;5047152;28;20282;-46
2022/02/02 05:17:05;;;;;;;0.73;0.30;;;26.80;52.90;;;;;;5061487;22;20699;-66
2022/02/02 05:42:41;;;;;;;0.75;0.30;;;27.00;52.60;;;;;;5031700;28;20207;-70
2022/02/02 05:51:00;;;;;;;3.10;1.48;;;27.10;52.50;;;;;;5030405;28;20199;-70
2022/02/02 05:53:31;;;;;;;3.85;1.30;;;27.20;52.50;;;;;;5029938;28;20212;-70
2022/02/02 05:56:05;;;;;;;5.72;1.75;;;27.30;52.60;;;;;;5031673;28;20192;-59
2022/02/02 05:58:39;;;;;;;4.63;1.48;;;27.30;52.60;;;;;;5029784;28;20216;-68
2022/02/02 06:01:11;;;;;;;3.72;1.42;;;27.30;52.50;;;;;;5025709;28;20619;-72
2022/02/02 06:03:53;;;;;;;5.68;1.60;;;27.30;52.50;;;;;;5026660;28;20208;-72
2022/02/02 06:06:25;;;;;;;3.63;1.48;;;27.40;52.50;;;;;;5024976;28;20230;-73
2022/02/02 06:08:57;;;;;;;3.05;1.25;;;27.40;52.50;;;;;;5026888;28;20204;-53
2022/02/02 06:11:28;;;;;;;3.47;1.33;;;27.50;52.50;;;;;;5027057;28;20258;-71
2022/02/02 06:14:01;;;;;;;3.67;1.30;;;27.50;52.50;;;;;;5027533;28;20275;-73
2022/02/02 06:19:09;;;;;;;2.83;1.33;;;27.50;52.30;;;;;;5032132;28;20212;-51
2022/02/02 06:21:40;;;;;;;1.83;1.10;;;27.50;52.20;;;;;;5045548;28;20207;-52
2022/02/02 06:24:12;;;;;;;2.92;1.30;;;27.60;52.30;;;;;;5036373;28;20262;-52
2022/02/02 06:26:48;;;;;;;3.45;0.93;;;27.60;52.30;;;;;;5032905;28;20660;-53
2022/02/02 06:29:21;;;;;;;3.60;1.13;;;27.60;52.10;;;;;;5044600;28;20291;-54
2022/02/02 06:31:52;;;;;;;1.65;1.02;;;27.60;52.20;;;;;;5045190;28;20196;-50
2022/02/02 06:34:27;;;;;;;2.42;0.90;;;27.60;52.10;;;;;;5046405;28;20192;-49
2022/02/02 06:37:02;;;;;;;1.10;0.77;;;27.70;52.00;;;;;;5016230;28;20286;-50
2022/02/02 06:39:33;;;;;;;3.28;0.90;;;27.60;51.70;;;;;;5028921;28;20726;-46
2022/02/02 06:42:04;;;;;;;1.63;0.60;;;27.70;51.40;;;;;;5035170;28;20253;-52
2022/02/02 06:44:38;;;;;;;2.15;0.80;;;27.70;51.20;;;;;;5039578;28;20265;-49
2022/02/02 06:47:09;;;;;;;2.70;0.75;;;27.70;51.10;;;;;;5038639;28;20224;-46
2022/02/02 06:49:42;;;;;;;2.80;0.80;;;27.70;51.20;;;;;;5027078;28;20200;-45
2022/02/02 06:52:20;;;;;;;1.35;0.60;;;27.70;51.30;;;;;;5035551;28;20200;-49
2022/02/02 06:55:00;;;;;;;1.15;0.60;;;27.70;51.30;;;;;;5046979;28;20195;-51
2022/02/02 06:57:45;;;;;;;1.10;0.70;;;27.80;51.40;;;;;;5043022;28;20220;-54
2022/02/02 07:00:33;;;;;;;1.65;0.70;;;27.80;51.40;;;;;;5030077;28;20204;-52
2022/02/02 07:03:23;;;;;;;4.00;0.77;;;27.80;51.50;;;;;;5040473;28;20647;-49
2022/02/02 07:06:07;;;;;;;1.60;0.63;;;27.80;51.40;;;;;;5031419;28;20259;-49
2022/02/02 07:08:54;;;;;;;1.33;0.40;;;27.80;51.40;;;;;;5029786;28;20215;-42
2022/02/02 07:11:39;;;;;;;0.98;0.55;;;27.80;51.30;;;;;;5025558;28;20297;-50
2022/02/02 07:14:19;;;;;;;1.80;0.88;;;27.80;51.30;;;;;;5027439;28;20575;-51
2022/02/02 07:17:08;;;;;;;1.08;0.57;;;27.80;51.30;;;;;;5028608;28;20207;-55
2022/02/02 07:19:52;;;;;;;0.85;0.43;;;27.80;51.30;;;;;;5029870;28;20231;-44
2022/02/02 07:22:46;;;;;;;1.05;0.55;;;27.80;51.30;;;;;;5035578;28;20326;-48
2022/02/02 07:25:37;;;;;;;1.25;0.40;;;27.80;51.20;;;;;;5013926;28;20211;-53
2022/02/02 07:28:11;;;;;;;1.10;0.45;;;27.80;51.10;;;;;;5014104;28;20228;-45
2022/02/02 07:30:54;;;;;;;0.80;0.32;;;27.80;51.00;;;;;;5027488;28;20234;-47
2022/02/02 07:33:34;;;;;;;1.38;0.30;;;27.80;51.00;;;;;;5045735;28;20199;-56
2022/02/02 07:36:11;;;;;;;0.82;0.32;;;27.80;51.00;;;;;;5028849;28;20203;-48
2022/02/02 07:38:58;;;;;;;2.05;0.35;;;27.80;51.00;;;;;;5029561;28;20230;-48
2022/02/02 07:41:32;;;;;;;0.52;0.30;;;27.80;51.00;;;;;;5018589;28;20204;-53
2022/02/02 07:44:08;;;;;;;0.57;0.40;;;27.80;51.60;;;;;;5022952;28;20222;-49
2022/02/02 07:46:39;;;;;;;0.82;0.30;;;27.80;51.10;;;;;;5026482;28;20229;-46
2022/02/02 07:49:13;;;;;;;1.08;0.40;;;27.80;51.10;;;;;;5028363;28;20611;-57
2022/02/02 07:51:44;;;;;;;0.95;0.30;;;27.80;51.20;;;;;;5043611;28;20199;-52
2022/02/02 07:54:19;;;;;;;1.23;0.40;;;27.80;51.20;;;;;;5012268;28;20196;-48
2022/02/02 07:56:49;;;;;;;2.38;0.43;;;27.80;51.20;;;;;;5016941;28;20227;-54
2022/02/02 07:59:28;;;;;;;1.08;0.40;;;27.80;51.30;;;;;;5028643;28;20258;-48
2022/02/02 08:01:59;;;;;;;0.60;0.30;;;27.70;51.20;;;;;;5026273;28;20287;-51
2022/02/02 08:04:32;;;;;;;2.15;0.30;;;27.80;51.40;;;;;;5030948;28;20195;-55
2022/02/02 08:07:03;;;;;;;2.55;0.57;;;27.70;51.30;;;;;;5039289;28;20322;-59
2022/02/02 08:09:38;;;;;;;0.63;0.30;;;27.80;51.40;;;;;;5028876;28;20192;-57
2022/02/02 08:12:15;;;;;;;0.68;0.40;;;27.80;51.50;;;;;;5028353;28;20200;-57
2022/02/02 08:14:53;;;;;;;0.57;0.32;;;27.80;51.50;;;;;;5028186;28;20376;-52
2022/02/02 08:17:23;;;;;;;1.48;0.30;;;27.80;51.40;;;;;;5039344;28;20254;-53
2022/02/02 08:19:56;;;;;;;0.75;0.40;;;27.80;51.40;;;;;;5032724;28;20192;-58
2022/02/02 08:22:29;;;;;;;1.15;0.38;;;27.80;51.40;;;;;;5029663;28;20199;-54
2022/02/02 08:25:00;;;;;;;1.52;0.35;;;27.80;51.50;;;;;;5043514;28;20206;-58
2022/02/02 08:27:30;;;;;;;1.08;0.25;;;27.80;51.50;;;;;;5042763;28;20228;-52
2022/02/02 08:30:01;;;;;;;0.60;0.28;;;27.70;51.40;;;;;;5042856;28;20849;-52
2022/02/02 08:32:39;;;;;;;0.63;0.32;;;27.70;51.50;;;;;;5042440;28;20599;-55
2022/02/02 08:35:12;;;;;;;0.82;0.40;;;27.70;51.40;;;;;;5042732;28;20278;-58
2022/02/02 08:37:47;;;;;;;0.80;0.40;;;27.70;51.40;;;;;;5040876;28;20219;-48
2022/02/02 08:40:32;;;;;;;0.60;0.30;;;27.70;51.50;;;;;;5041915;28;20665;-52
2022/02/02 08:43:08;;;;;;;0.47;0.40;;;27.70;51.50;;;;;;5041251;28;20234;-51
2022/02/02 08:45:41;;;;;;;1.65;0.30;;;27.70;51.50;;;;;;5040300;28;20209;-47
2022/02/02 08:48:20;;;;;;;0.30;0.20;;;27.70;51.60;;;;;;5030086;28;20255;-41
2022/02/02 08:50:56;;;;;;;0.75;0.32;;;27.70;51.60;;;;;;5044542;28;20201;-55
2022/02/02 08:53:40;;;;;;;0.77;0.30;;;27.70;51.60;;;;;;5046069;28;20199;-48
2022/02/02 08:59:04;;;;;;;0.52;0.25;;;27.70;51.60;;;;;;5014942;28;20227;-54
2022/02/02 09:01:36;;;;;;;0.35;0.30;;;27.70;51.60;;;;;;5041512;28;20197;-46
2022/02/02 09:06:55;;;;;;;0.35;0.20;;;27.70;51.60;;;;;;5042256;28;20238;-51
2022/02/02 09:09:44;;;;;;;0.40;0.20;;;27.70;51.60;;;;;;5041587;28;20259;-43
2022/02/02 09:21:24;;;;;;;0.82;0.32;;;27.60;51.60;;;;;;5064390;28;20265;-67
2022/02/02 09:34:55;;;;;;;0.85;0.20;;;27.60;51.70;;;;;;5047073;28;20192;-70
2022/02/02 09:37:27;;;;;;;0.20;0.20;;;27.60;51.70;;;;;;5052888;28;20223;-53
2022/02/02 09:40:05;;;;;;;0.13;0.10;;;27.60;51.70;;;;;;5051222;28;20203;-53
2022/02/02 09:42:35;;;;;;;2.38;0.50;;;27.50;51.70;;;;;;5055853;28;20203;-52
2022/02/02 09:45:11;;;;;;;0.45;0.30;;;27.50;51.70;;;;;;5062821;28;20200;-51
2022/02/02 09:47:48;;;;;;;0.38;0.28;;;27.50;51.80;;;;;;5050770;28;20246;-52
2022/02/02 09:50:24;;;;;;;0.20;0.20;;;27.50;51.80;;;;;;5052935;28;20276;-51
2022/02/02 09:52:58;;;;;;;0.20;0.20;;;27.50;51.80;;;;;;5061417;28;20217;-59
2022/02/02 09:58:30;;;;;;;0.20;0.10;;;27.50;51.80;;;;;;5063976;28;20226;-49
2022/02/02 10:01:41;;;;;;;0.40;0.17;;;27.50;51.80;;;;;;5052223;28;20294;-48
2022/02/02 10:04:31;;;;;;;0.88;0.22;;;27.50;51.80;;;;;;5057691;28;20237;-48
2022/02/02 10:07:35;;;;;;;0.10;0.10;;;27.50;51.70;;;;;;5052628;28;20683;-47
2022/02/02 10:10:47;;;;;;;0.30;0.30;;;27.50;51.70;;;;;;5050678;28;20218;-48
2022/02/02 10:13:35;;;;;;;0.10;0.10;;;27.50;51.70;;;;;;5050654;28;20562;-57
2022/02/02 10:16:17;;;;;;;0.10;0.10;;;27.50;51.80;;;;;;5049255;28;20229;-52
2022/02/02 10:18:49;;;;;;;0.38;0.20;;;27.50;51.80;;;;;;5050174;28;20321;-63
2022/02/02 10:21:33;;;;;;;0.40;0.10;;;27.50;51.90;;;;;;5056329;28;20724;-70
2022/02/02 10:24:04;;;;;;;0.20;0.15;;;27.50;51.90;;;;;;5050557;28;20207;-53
2022/02/02 10:26:34;;;;;;;0.28;0.20;;;27.40;51.80;;;;;;5049982;28;20227;-52
2022/02/02 10:29:15;;;;;;;0.13;0.10;;;27.40;51.80;;;;;;5049715;28;20211;-61
2022/02/02 10:31:47;;;;;;;1.00;0.20;;;27.40;51.80;;;;;;5068133;28;20205;-52
2022/02/02 10:34:19;;;;;;;0.10;0.10;;;27.40;51.80;;;;;;5064567;28;20202;-52
2022/02/02 10:37:11;;;;;;;0.20;0.10;;;27.40;51.90;;;;;;5051548;28;20235;-55
2022/02/02 10:39:49;;;;;;;1.23;0.30;;;27.40;51.90;;;;;;5049201;28;20191;-52
2022/02/02 10:42:40;;;;;;;0.22;0.20;;;27.30;51.80;;;;;;5049301;28;20268;-53
2022/02/02 10:45:24;;;;;;;1.40;0.20;;;27.40;51.90;;;;;;5050465;28;20196;-50
2022/02/02 10:48:03;;;;;;;0.25;0.25;;;27.40;51.90;;;;;;5048017;28;20225;-49
2022/02/02 10:50:39;;;;;;;0.90;0.30;;;27.30;51.80;;;;;;5047578;28;20191;-53
2022/02/02 10:56:28;;;;;;;0.20;0.20;;;27.30;51.80;;;;;;4986920;28;20197;-51
2022/02/02 11:07:37;;;;;;;0.52;0.30;;;27.30;51.90;;;;;;5040111;28;20975;-53
2022/02/02 11:10:08;;;;;;;1.00;0.40;;;27.30;51.90;;;;;;5039631;28;20191;-54
2022/02/02 11:12:39;;;;;;;1.80;0.32;;;27.30;52.00;;;;;;5040558;28;20237;-49
2022/02/02 11:15:24;;;;;;;0.60;0.30;;;27.20;51.90;;;;;;5040711;28;20274;-50
2022/02/02 11:18:04;;;;;;;1.65;0.45;;;27.20;51.90;;;;;;5041893;28;20281;-48
2022/02/02 11:20:37;;;;;;;1.30;0.40;;;27.30;52.00;;;;;;5054990;22;20227;-55
2022/02/02 11:23:09;;;;;;;0.40;0.30;;;27.20;51.90;;;;;;5036626;28;20200;-47
2022/02/02 11:25:50;;;;;;;0.73;0.25;;;27.20;51.90;;;;;;5015915;28;20255;-55
2022/02/02 11:28:34;;;;;;;0.63;0.32;;;27.20;52.00;;;;;;5028487;28;20236;-51
2022/02/02 11:31:14;;;;;;;0.30;0.20;;;27.20;52.00;;;;;;5029816;28;20192;-57
2022/02/02 11:33:55;;;;;;;0.57;0.30;;;27.20;52.00;;;;;;5012839;28;20267;-55
2022/02/02 11:36:33;;;;;;;0.40;0.22;;;27.20;52.10;;;;;;5013573;28;20204;-52
2022/02/02 11:39:07;;;;;;;1.20;0.38;;;27.20;52.10;;;;;;5026997;28;20231;-46
2022/02/02 11:44:46;;;;;;;0.52;0.35;;;27.10;52.00;;;;;;5027216;28;20652;-54
2022/02/02 11:47:23;;;;;;;0.47;0.28;;;27.10;52.00;;;;;;5024648;28;20228;-57
2022/02/02 11:50:00;;;;;;;0.30;0.30;;;27.10;52.10;;;;;;5027247;28;20207;-51
2022/02/02 11:52:51;;;;;;;1.55;0.43;;;27.10;52.10;;;;;;5023529;28;20281;-54
2022/02/02 11:55:43;;;;;;;0.90;0.40;;;27.10;52.20;;;;;;5026126;28;20192;-55
2022/02/02 11:58:27;;;;;;;0.30;0.30;;;27.20;52.30;;;;;;5023357;28;20217;-47
2022/02/02 12:01:05;;;;;;;0.22;0.20;;;27.10;52.20;;;;;;5012795;28;20200;-53
2022/02/02 12:04:00;;;;;;;0.65;0.20;;;27.10;52.20;;;;;;5012520;28;20223;-47
2022/02/02 12:06:54;;;;;;;0.30;0.30;;;27.10;52.20;;;;;;5011502;28;20201;-45
2022/02/02 12:09:42;;;;;;;1.65;0.40;;;27.10;52.20;;;;;;5010870;28;20203;-53
2022/02/02 12:49:05;;;;;;;0.20;0.20;;;27.00;52.40;;;;;;5027533;28;20694;-51
2022/02/02 12:57:14;;;;;;;0.47;0.30;;;26.90;52.40;;;;;;5012889;28;20216;-53
2022/02/02 13:00:05;;;;;;;0.15;0.15;;;26.90;52.50;;;;;;5027660;28;20202;-50
2022/02/02 13:02:39;;;;;;;0.45;0.20;;;26.90;52.50;;;;;;5019581;28;20676;-53
2022/02/02 13:05:11;;;;;;;0.43;0.20;;;26.90;52.50;;;;;;5014374;28;20222;-48
2022/02/02 13:07:42;;;;;;;0.40;0.25;;;26.90;52.50;;;;;;5013958;28;20681;-48
2022/02/02 13:10:20;;;;;;;1.65;0.28;;;26.90;52.50;;;;;;5016670;28;20217;-50
2022/02/02 13:13:05;;;;;;;0.35;0.28;;;26.90;52.50;;;;;;5018815;28;20253;-45
2022/02/02 13:15:41;;;;;;;0.20;0.10;;;26.90;52.50;;;;;;5030113;28;20196;-53
2022/02/02 13:18:18;;;;;;;0.22;0.20;;;26.90;52.40;;;;;;5031703;28;20273;-50
2022/02/02 13:21:01;;;;;;;0.22;0.10;;;26.90;52.50;;;;;;5032769;28;20199;-52
2022/02/02 13:23:43;;;;;;;0.17;0.10;;;26.90;52.50;;;;;;5031565;28;20838;-50
2022/02/02 13:26:20;;;;;;;0.20;0.20;;;26.90;52.50;;;;;;5030284;28;20279;-53
2022/02/02 13:29:00;;;;;;;0.10;0.10;;;26.90;52.50;;;;;;5031830;28;20638;-51
2022/02/02 13:31:47;;;;;;;0.20;0.20;;;26.90;52.50;;;;;;5030118;28;20283;-54
2022/02/02 13:43:24;;;;;;;0.10;0.10;;;26.90;52.60;;;;;;5022839;28;20231;-56
2022/02/02 13:49:13;;;;;;;0.10;0.10;;;26.80;52.60;;;;;;5025683;28;20223;-53
2022/02/02 13:52:06;;;;;;;0.22;0.20;;;26.80;52.60;;;;;;5016693;28;20648;-54
2022/02/02 13:54:44;;;;;;;0.20;0.20;;;26.80;52.70;;;;;;5021052;28;20219;-56
2022/02/02 13:57:56;;;;;;;0.10;0.10;;;26.80;52.70;;;;;;5030832;28;20311;-50
2022/02/02 14:00:32;;;;;;;0.10;0.10;;;26.80;52.80;;;;;;5029260;28;20581;-52
2022/02/02 14:25:34;;;;;;;0.20;0.20;;;26.70;52.70;;;;;;5014850;28;20224;-45
2022/02/02 14:26:09;;;;;;;0.13;0.03;;;26.70;52.80;;;;;;5015577;28;20208;-50
2022/02/02 14:31:33;;;;;;;0.35;0.10;;;26.70;52.80;;;;;;5014570;28;20327;-46
2022/02/02 14:34:05;;;;;;;0.20;0.20;;;26.70;52.80;;;;;;5026913;28;20200;-52
2022/02/02 14:36:38;;;;;;;0.40;0.20;;;26.70;52.80;;;;;;5029488;28;20680;-47
2022/02/02 14:39:17;;;;;;;0.00;0.00;;;26.70;52.80;;;;;;5028335;28;20227;-46
2022/02/02 14:41:52;;;;;;;0.22;0.10;;;26.70;52.90;;;;;;5028664;28;21003;-45
2022/02/02 14:44:27;;;;;;;0.10;0.03;;;26.70;53.50;;;;;;5018903;28;20200;-49
2022/02/02 14:47:03;;;;;;;0.10;0.10;;;26.70;53.00;;;;;;5029249;28;21201;-52
2022/02/02 14:49:42;;;;;;;0.25;0.10;;;26.70;53.00;;;;;;5013718;28;20260;-51
2022/02/02 14:52:24;;;;;;;0.10;0.10;;;26.70;53.00;;;;;;5028517;28;20288;-50
2022/02/02 14:55:29;;;;;;;0.10;0.10;;;26.60;52.90;;;;;;5029760;28;20294;-48
2022/02/02 15:28:52;;;;;;;0.10;0.10;;;26.60;53.00;;;;;;4998610;28;20275;-51
2022/02/02 15:31:22;;;;;;;0.25;0.08;;;26.60;53.10;;;;;;5032615;28;20560;-57
2022/02/02 15:33:54;;;;;;;0.10;0.10;;;26.60;53.10;;;;;;5033930;28;20246;-55
2022/02/02 15:36:59;;;;;;;0.10;0.10;;;26.60;53.20;;;;;;5034421;28;20198;-56
2022/02/02 15:39:30;;;;;;;0.10;0.10;;;26.60;53.20;;;;;;5029409;28;20207;-51
2022/02/02 15:42:19;;;;;;;0.00;0.00;;;26.60;53.10;;;;;;5025890;28;20315;-55
2022/02/02 15:59:06;;;;;;;0.10;0.10;;;26.50;53.10;;;;;;4998905;28;20319;-46
2022/02/02 16:04:33;;;;;;;0.30;0.10;;;26.50;53.10;;;;;;5011000;28;20597;-57
2022/02/02 16:07:07;;;;;;;1.60;0.40;;;26.50;53.10;;;;;;5012293;28;20208;-51
2022/02/02 16:09:46;;;;;;;0.52;0.28;;;26.50;53.10;;;;;;5028102;28;20227;-42
2022/02/02 16:12:21;;;;;;;0.10;0.10;;;26.50;53.20;;;;;;5027308;28;20196;-54
2022/02/02 16:15:03;;;;;;;0.43;0.17;;;26.50;53.20;;;;;;5026977;28;20660;-55
2022/02/02 16:17:45;;;;;;;0.25;0.10;;;26.50;53.10;;;;;;5027029;28;20247;-55
2022/02/02 16:31:50;;;;;;;0.20;0.10;;;26.50;53.20;;;;;;5028355;28;20576;-56
2022/02/02 16:34:45;;;;;;;0.10;0.10;;;26.50;53.20;;;;;;5026987;28;20676;-55
2022/02/02 16:37:23;;;;;;;0.00;0.00;;;26.50;53.20;;;;;;5014867;28;20216;-58
2022/02/02 16:39:58;;;;;;;0.15;0.15;;;26.50;53.20;;;;;;5013350;28;20195;-59
2022/02/02 16:45:15;;;;;;;0.10;0.10;;;26.50;53.20;;;;;;5025313;28;20203;-59
2022/02/02 16:47:48;;;;;;;0.55;0.20;;;26.50;53.20;;;;;;5025867;28;20842;-48
2022/02/02 16:50:22;;;;;;;0.22;0.20;;;26.50;53.20;;;;;;5017435;28;20292;-57
2022/02/02 16:52:56;;;;;;;0.08;0.08;;;26.50;53.20;;;;;;5014135;28;20192;-58
2022/02/02 16:55:36;;;;;;;0.05;0.05;;;26.50;53.20;;;;;;5016848;28;20192;-59
2022/02/02 16:58:22;;;;;;;0.00;0.00;;;26.50;53.20;;;;;;5026776;28;20675;-53
2022/02/02 17:31:34;;;;;;;0.10;0.10;;;26.50;53.30;;;;;;5008174;28;20201;-49
2022/02/02 17:34:13;;;;;;;0.10;0.10;;;26.50;53.30;;;;;;5006165;28;20196;-50
2022/02/02 17:36:49;;;;;;;0.10;0.10;;;26.50;53.30;;;;;;5005961;28;20723;-48
2022/02/02 17:39:31;;;;;;;0.10;0.10;;;26.40;53.30;;;;;;5008691;28;20196;-50
2022/02/02 17:42:27;;;;;;;0.30;0.10;;;26.40;53.30;;;;;;5008910;28;20555;-47
2022/02/02 18:13:04;;;;;;;0.63;0.10;;;26.40;53.30;;;;;;5004782;28;20595;-48
2022/02/02 18:18:47;;;;;;;0.45;0.20;;;26.40;53.30;;;;;;4998847;28;20232;-53
2022/02/02 19:37:52;;;;;;;1.35;0.50;;;26.30;53.90;;;;;;5027397;28;20227;-43
2022/02/02 19:40:24;;;;;;;0.65;0.40;;;26.30;53.90;;;;;;5023222;28;20260;-45
2022/02/02 19:56:59;;;;;;;0.60;0.32;;;26.40;54.10;;;;;;5028166;28;20227;-48
2022/02/02 20:05:20;;;;;;;1.98;0.40;;;26.40;54.00;;;;;;5010322;28;20294;-53
2022/02/02 20:10:44;;;;;;;0.38;0.25;;;26.40;54.00;;;;;;5018708;28;20227;-51
2022/02/02 20:13:15;;;;;;;0.77;0.20;;;26.40;53.90;;;;;;5025622;28;20204;-52
2022/02/02 20:15:46;;;;;;;1.15;0.30;;;26.40;53.90;;;;;;5027364;28;20258;-53
2022/02/02 20:18:16;;;;;;;0.63;0.40;;;26.40;53.90;;;;;;5027174;28;20759;-49
2022/02/02 20:20:47;;;;;;;0.82;0.47;;;26.40;54.00;;;;;;5027549;28;20199;-44
2022/02/02 20:23:18;;;;;;;0.60;0.30;;;26.40;53.90;;;;;;5026849;28;20274;-52
2022/02/02 20:25:54;;;;;;;0.98;0.30;;;26.40;53.90;;;;;;5028259;28;20192;-53
2022/02/02 20:28:24;;;;;;;1.55;0.38;;;26.40;53.90;;;;;;5027340;28;20222;-45
2022/02/02 20:30:55;;;;;;;0.13;0.13;;;26.40;53.90;;;;;;5028145;28;20188;-41
2022/02/02 20:33:25;;;;;;;1.10;0.35;;;26.40;53.90;;;;;;5027963;28;20200;-44
2022/02/02 20:35:56;;;;;;;14.45;1.40;;;26.40;53.80;;;;;;5028186;28;20254;-52
2022/02/02 20:38:27;;;;;;;6.78;0.68;;;26.50;53.90;;;;;;5027792;28;20731;-52
2022/02/02 20:41:00;;;;;;;4.43;0.90;;;26.50;53.80;;;;;;5028241;28;20201;-43
2022/02/02 20:43:34;;;;;;;9.75;1.23;;;26.50;53.80;;;;;;5027787;28;20196;-52
2022/02/02 20:46:30;;;;;;;2.25;0.63;;;26.50;53.80;;;;;;5027713;28;20196;-43
2022/02/02 21:01:09;;;;;;;3.38;0.70;;;26.50;54.10;;;;;;5028152;28;20208;-45
2022/02/02 21:03:42;;;;;;;5.38;1.02;;;26.60;54.20;;;;;;5026014;28;20219;-48
2022/02/02 21:06:24;;;;;;;2.25;1.02;;;26.60;54.30;;;;;;5028412;28;20198;-57
2022/02/02 21:09:10;;;;;;;3.13;0.90;;;26.60;54.40;;;;;;5025552;28;20828;-54
2022/02/02 21:13:38;;;;;;;3.95;1.02;;;26.60;54.50;;;;;;5025048;28;20204;-53
2022/02/02 21:14:47;;;;;;;3.78;1.20;;;26.60;54.50;;;;;;5024928;28;20196;-55
2022/02/02 21:17:23;;;;;;;2.10;1.15;;;26.60;54.40;;;;;;5021556;28;20674;-46
2022/02/02 21:19:57;;;;;;;2.05;1.00;;;26.60;54.30;;;;;;5025640;28;20295;-58
2022/02/02 21:22:31;;;;;;;2.97;1.30;;;26.60;54.30;;;;;;5028375;28;20234;-51
2022/02/02 21:25:19;;;;;;;3.95;1.33;;;26.70;54.40;;;;;;5021411;28;20288;-56
2022/02/02 21:27:55;;;;;;;4.13;1.30;;;26.70;54.40;;;;;;5021116;28;20212;-54
2022/02/02 21:30:28;;;;;;;4.78;2.00;;;26.70;54.50;;;;;;5022115;28;20226;-52
2022/02/02 21:32:59;;;;;;;3.05;1.70;;;26.70;54.60;;;;;;5027368;28;20204;-56
2022/02/02 21:35:30;;;;;;;3.38;1.77;;;26.70;54.70;;;;;;5023706;28;20200;-49
2022/02/02 21:38:08;;;;;;;2.65;1.50;;;26.70;54.70;;;;;;5029398;28;20274;-53
2022/02/02 21:40:39;;;;;;;2.72;1.70;;;26.80;54.70;;;;;;5028986;28;20200;-52
2022/02/02 21:43:10;;;;;;;2.92;1.50;;;26.80;54.60;;;;;;5023848;28;20250;-55
2022/02/02 21:45:42;;;;;;;1.83;1.20;;;26.80;54.60;;;;;;5026179;28;20756;-43
2022/02/02 21:48:13;;;;;;;3.05;1.13;;;26.80;54.50;;;;;;5023223;28;20220;-48
2022/02/02 21:50:48;;;;;;;2.40;1.10;;;26.80;54.50;;;;;;5019753;28;20225;-52
2022/02/02 21:53:19;;;;;;;2.03;1.08;;;26.80;54.70;;;;;;5024337;28;20196;-51
2022/02/02 21:55:50;;;;;;;2.35;1.17;;;26.80;54.70;;;;;;5026934;28;20196;-46
2022/02/02 21:58:21;;;;;;;2.45;1.20;;;26.80;54.70;;;;;;5027503;28;20270;-44
2022/02/02 22:00:54;;;;;;;3.97;1.38;;;26.80;54.70;;;;;;5026339;28;20218;-55
2022/02/02 22:03:24;;;;;;;3.25;1.17;;;26.90;54.80;;;;;;5024617;28;20249;-45
2022/02/02 22:05:55;;;;;;;3.35;1.20;;;26.90;54.90;;;;;;5023215;28;20262;-55
2022/02/02 22:08:25;;;;;;;2.53;0.90;;;26.90;54.90;;;;;;5020710;28;20220;-47
2022/02/02 22:10:56;;;;;;;3.50;1.30;;;26.90;54.90;;;;;;5028194;28;20227;-42